PUA2603 SLLP-SPZO
Flight info
| Callsign | PUA2603 |
|---|---|
| Flight time | 0h 51m |
| Altitude | 38000 |
| Route | ELAKO UM657 JUL UV11 ILMOX |
| Aircraft | A20N/M-SDE2E3FGHIRWXY/LB1 |
Departure
| Time | 2026-04-23 04:36 |
|---|---|
| Airport | El Alto International Airport (SLLP) |
Arrival
| Time | 2026-04-23 05:28 |
|---|---|
| Airport | Alejandro Velasco Astete International Airport (SPZO) |
| Time | Latitude | Longitude | Altitude | Speed | Heading |
|---|---|---|---|---|---|
| 2026-04-23 03:57 | -16.50943 | -68.17761 | 13366 ft | 0 kts | 34° |
| 2026-04-23 04:12 | -16.50946 | -68.17764 | 13366 ft | 2 kts | 33° |
| 2026-04-23 04:13 | -16.50960 | -68.17769 | 13365 ft | 2 kts | 7° |
| 2026-04-23 04:13 | -16.50976 | -68.17769 | 13365 ft | 2 kts | 347° |
| 2026-04-23 04:13 | -16.50990 | -68.17763 | 13365 ft | 2 kts | 327° |
| 2026-04-23 04:13 | -16.51001 | -68.17754 | 13365 ft | 2 kts | 307° |
| 2026-04-23 04:14 | -16.51009 | -68.17740 | 13365 ft | 2 kts | 296° |
| 2026-04-23 04:14 | -16.51015 | -68.17728 | 13365 ft | 0 kts | 301° |
| 2026-04-23 04:14 | -16.51016 | -68.17727 | 13365 ft | 0 kts | 300° |
| 2026-04-23 04:17 | -16.51011 | -68.17735 | 13365 ft | 3 kts | 300° |
| 2026-04-23 04:17 | -16.50999 | -68.17783 | 13363 ft | 10 kts | 274° |
| 2026-04-23 04:17 | -16.51004 | -68.17885 | 13357 ft | 17 kts | 242° |
| 2026-04-23 04:17 | -16.51101 | -68.17995 | 13347 ft | 22 kts | 227° |
| 2026-04-23 04:18 | -16.51220 | -68.18128 | 13331 ft | 27 kts | 229° |
| 2026-04-23 04:18 | -16.51316 | -68.18280 | 13319 ft | 22 kts | 246° |
| 2026-04-23 04:18 | -16.51355 | -68.18454 | 13308 ft | 26 kts | 265° |
| 2026-04-23 04:18 | -16.51353 | -68.18654 | 13296 ft | 29 kts | 271° |
| 2026-04-23 04:19 | -16.51344 | -68.18875 | 13281 ft | 32 kts | 271° |
| 2026-04-23 04:19 | -16.51339 | -68.19107 | 13269 ft | 30 kts | 271° |
| 2026-04-23 04:19 | -16.51333 | -68.19335 | 13257 ft | 32 kts | 271° |
| 2026-04-23 04:19 | -16.51328 | -68.19571 | 13248 ft | 32 kts | 273° |
| 2026-04-23 04:20 | -16.51318 | -68.19811 | 13236 ft | 33 kts | 271° |
| 2026-04-23 04:20 | -16.51309 | -68.20065 | 13222 ft | 35 kts | 273° |
| 2026-04-23 04:20 | -16.51301 | -68.20326 | 13210 ft | 36 kts | 273° |
| 2026-04-23 04:20 | -16.51293 | -68.20589 | 13195 ft | 37 kts | 271° |
| 2026-04-23 04:21 | -16.51273 | -68.20845 | 13180 ft | 27 kts | 286° |
| 2026-04-23 04:21 | -16.51235 | -68.20963 | 13174 ft | 9 kts | 284° |
| 2026-04-23 04:21 | -16.51226 | -68.20999 | 13172 ft | 4 kts | 290° |
| 2026-04-23 04:21 | -16.51223 | -68.21026 | 13171 ft | 3 kts | 262° |
| 2026-04-23 04:22 | -16.51229 | -68.21055 | 13170 ft | 4 kts | 249° |
| 2026-04-23 04:22 | -16.51248 | -68.21078 | 13169 ft | 4 kts | 192° |
| 2026-04-23 04:22 | -16.51274 | -68.21068 | 13169 ft | 2 kts | 122° |
| 2026-04-23 04:22 | -16.51274 | -68.21064 | 13169 ft | 0 kts | 92° |
| 2026-04-23 04:35 | -16.51275 | -68.21040 | 13170 ft | 16 kts | 93° |
| 2026-04-23 04:35 | -16.51290 | -68.20675 | 13190 ft | 82 kts | 92° |
| 2026-04-23 04:35 | -16.51317 | -68.19880 | 13233 ft | 138 kts | 91° |
| 2026-04-23 04:36 | -16.51350 | -68.18703 | 13294 ft | 185 kts | 94° |
| 2026-04-23 04:36 | -16.51408 | -68.17270 | 13611 ft | 204 kts | 94° |
| 2026-04-23 04:36 | -16.51470 | -68.15855 | 14400 ft | 199 kts | 94° |
| 2026-04-23 04:36 | -16.51533 | -68.14435 | 15054 ft | 199 kts | 93° |
| 2026-04-23 04:37 | -16.51732 | -68.12974 | 15344 ft | 211 kts | 115° |
| 2026-04-23 04:37 | -16.52739 | -68.11865 | 15571 ft | 222 kts | 156° |
| 2026-04-23 04:37 | -16.54305 | -68.11655 | 15808 ft | 235 kts | 190° |
| 2026-04-23 04:37 | -16.55835 | -68.12399 | 16047 ft | 248 kts | 223° |
| 2026-04-23 04:38 | -16.56750 | -68.13940 | 16287 ft | 259 kts | 258° |
| 2026-04-23 04:38 | -16.56843 | -68.15849 | 16528 ft | 274 kts | 272° |
| 2026-04-23 04:38 | -16.56783 | -68.17881 | 16951 ft | 283 kts | 272° |
| 2026-04-23 04:38 | -16.56759 | -68.19956 | 17507 ft | 287 kts | 271° |
| 2026-04-23 04:39 | -16.56757 | -68.22039 | 18065 ft | 290 kts | 271° |
| 2026-04-23 04:39 | -16.56766 | -68.24157 | 18577 ft | 292 kts | 271° |
| 2026-04-23 04:39 | -16.56780 | -68.26278 | 19092 ft | 293 kts | 270° |
| 2026-04-23 04:39 | -16.56798 | -68.28421 | 19607 ft | 295 kts | 270° |
| 2026-04-23 04:40 | -16.56817 | -68.30571 | 20070 ft | 297 kts | 270° |
| 2026-04-23 04:40 | -16.56856 | -68.32747 | 20543 ft | 299 kts | 265° |
| 2026-04-23 04:40 | -16.57419 | -68.34837 | 20978 ft | 303 kts | 243° |
| 2026-04-23 04:40 | -16.58505 | -68.36752 | 21449 ft | 305 kts | 238° |
| 2026-04-23 04:41 | -16.59673 | -68.38621 | 21893 ft | 308 kts | 238° |
| 2026-04-23 04:41 | -16.60824 | -68.40507 | 22343 ft | 309 kts | 239° |
| 2026-04-23 04:41 | -16.61957 | -68.42434 | 22812 ft | 311 kts | 240° |
| 2026-04-23 04:41 | -16.63071 | -68.44376 | 23273 ft | 313 kts | 240° |
| 2026-04-23 04:42 | -16.64209 | -68.46383 | 23745 ft | 316 kts | 240° |
| 2026-04-23 04:42 | -16.65326 | -68.48363 | 24246 ft | 319 kts | 241° |
| 2026-04-23 04:42 | -16.66440 | -68.50389 | 24737 ft | 321 kts | 246° |
| 2026-04-23 04:42 | -16.66958 | -68.52663 | 25152 ft | 321 kts | 275° |
| 2026-04-23 04:43 | -16.66385 | -68.54893 | 25536 ft | 324 kts | 300° |
| 2026-04-23 04:43 | -16.64925 | -68.56724 | 25748 ft | 334 kts | 316° |
| 2026-04-23 04:43 | -16.63195 | -68.58408 | 25775 ft | 352 kts | 316° |
| 2026-04-23 04:43 | -16.61359 | -68.60242 | 25781 ft | 370 kts | 315° |
| 2026-04-23 04:44 | -16.59467 | -68.62158 | 25785 ft | 386 kts | 315° |
| 2026-04-23 04:44 | -16.57490 | -68.64172 | 25789 ft | 402 kts | 315° |
| 2026-04-23 04:44 | -16.55455 | -68.66252 | 25804 ft | 416 kts | 315° |
| 2026-04-23 04:44 | -16.53371 | -68.68386 | 26026 ft | 424 kts | 315° |
| 2026-04-23 04:45 | -16.51254 | -68.70556 | 26381 ft | 428 kts | 315° |
| 2026-04-23 04:45 | -16.49102 | -68.72762 | 26820 ft | 430 kts | 315° |
| 2026-04-23 04:45 | -16.46986 | -68.74933 | 27226 ft | 432 kts | 315° |
| 2026-04-23 04:45 | -16.44837 | -68.77136 | 27635 ft | 434 kts | 315° |
| 2026-04-23 04:46 | -16.42709 | -68.79319 | 28028 ft | 435 kts | 315° |
| 2026-04-23 04:46 | -16.40542 | -68.81541 | 28418 ft | 437 kts | 315° |
| 2026-04-23 04:46 | -16.38347 | -68.83791 | 28861 ft | 437 kts | 315° |
| 2026-04-23 04:46 | -16.36235 | -68.85957 | 29403 ft | 434 kts | 315° |
| 2026-04-23 04:47 | -16.34081 | -68.88165 | 29955 ft | 431 kts | 315° |
| 2026-04-23 04:47 | -16.31942 | -68.90357 | 30434 ft | 429 kts | 316° |
| 2026-04-23 04:47 | -16.29822 | -68.92528 | 30874 ft | 428 kts | 316° |
| 2026-04-23 04:47 | -16.27766 | -68.94632 | 31266 ft | 428 kts | 316° |
| 2026-04-23 04:48 | -16.25660 | -68.96788 | 31673 ft | 427 kts | 316° |
| 2026-04-23 04:48 | -16.23578 | -68.98917 | 32076 ft | 425 kts | 316° |
| 2026-04-23 04:48 | -16.21487 | -69.01054 | 32470 ft | 424 kts | 316° |
| 2026-04-23 04:48 | -16.19422 | -69.03167 | 32847 ft | 423 kts | 316° |
| 2026-04-23 04:49 | -16.17392 | -69.05242 | 33245 ft | 422 kts | 317° |
| 2026-04-23 04:49 | -16.15391 | -69.07286 | 33608 ft | 421 kts | 317° |
| 2026-04-23 04:49 | -16.13411 | -69.09309 | 33964 ft | 420 kts | 317° |
| 2026-04-23 04:49 | -16.11466 | -69.11294 | 34326 ft | 419 kts | 317° |
| 2026-04-23 04:50 | -16.07340 | -69.15506 | 35045 ft | 417 kts | 317° |
| 2026-04-23 04:50 | -16.05370 | -69.17519 | 35392 ft | 415 kts | 317° |
| 2026-04-23 04:50 | -16.03443 | -69.19486 | 35720 ft | 414 kts | 317° |
| 2026-04-23 04:51 | -16.01559 | -69.21407 | 36005 ft | 414 kts | 317° |
| 2026-04-23 04:51 | -15.97509 | -69.25539 | 36543 ft | 413 kts | 317° |
| 2026-04-23 04:51 | -15.95528 | -69.27713 | 36814 ft | 413 kts | 314° |
| 2026-04-23 04:52 | -15.93678 | -69.29981 | 37075 ft | 414 kts | 311° |
| 2026-04-23 04:52 | -15.91978 | -69.32313 | 37314 ft | 415 kts | 308° |
| 2026-04-23 04:52 | -15.90337 | -69.34853 | 37547 ft | 416 kts | 305° |
| 2026-04-23 04:52 | -15.88860 | -69.37438 | 37734 ft | 418 kts | 302° |
| 2026-04-23 04:53 | -15.87445 | -69.40058 | 37911 ft | 419 kts | 302° |
| 2026-04-23 04:53 | -15.86032 | -69.42690 | 38075 ft | 420 kts | 302° |
| 2026-04-23 04:53 | -15.84637 | -69.45286 | 38233 ft | 420 kts | 302° |
| 2026-04-23 04:53 | -15.83210 | -69.47932 | 38384 ft | 421 kts | 302° |
| 2026-04-23 04:54 | -15.81775 | -69.50594 | 38543 ft | 422 kts | 302° |
| 2026-04-23 04:54 | -15.80346 | -69.53239 | 38667 ft | 423 kts | 302° |
| 2026-04-23 04:54 | -15.77429 | -69.58632 | 38796 ft | 428 kts | 302° |
| 2026-04-23 04:55 | -15.74512 | -69.64020 | 38862 ft | 434 kts | 302° |
| 2026-04-23 04:55 | -15.71528 | -69.69527 | 38864 ft | 439 kts | 302° |
| 2026-04-23 04:56 | -15.68530 | -69.75058 | 38865 ft | 444 kts | 302° |
| 2026-04-23 04:56 | -15.65475 | -69.80693 | 38860 ft | 444 kts | 302° |
| 2026-04-23 04:57 | -15.62442 | -69.86285 | 38857 ft | 445 kts | 302° |
| 2026-04-23 04:57 | -15.59372 | -69.91940 | 38854 ft | 445 kts | 303° |
| 2026-04-23 04:58 | -15.56301 | -69.97594 | 38844 ft | 445 kts | 303° |
| 2026-04-23 04:58 | -15.53280 | -70.03150 | 38836 ft | 446 kts | 302° |
| 2026-04-23 04:59 | -15.51769 | -70.05930 | 38842 ft | 435 kts | 303° |
| 2026-04-23 04:59 | -15.50227 | -70.08637 | 38844 ft | 429 kts | 306° |
| 2026-04-23 04:59 | -15.46755 | -70.13593 | 38854 ft | 424 kts | 313° |
| 2026-04-23 05:00 | -15.42685 | -70.18064 | 38868 ft | 421 kts | 320° |
| 2026-04-23 05:00 | -15.38103 | -70.21994 | 38883 ft | 418 kts | 325° |
| 2026-04-23 05:01 | -15.33520 | -70.25638 | 38889 ft | 418 kts | 325° |
| 2026-04-23 05:01 | -15.28874 | -70.29333 | 38889 ft | 419 kts | 325° |
| 2026-04-23 05:02 | -15.24263 | -70.33001 | 38880 ft | 420 kts | 325° |
| 2026-04-23 05:02 | -15.19609 | -70.36704 | 38882 ft | 417 kts | 325° |
| 2026-04-23 05:03 | -15.14951 | -70.40408 | 38888 ft | 417 kts | 325° |
| 2026-04-23 05:03 | -15.10343 | -70.44070 | 38887 ft | 416 kts | 325° |
| 2026-04-23 05:04 | -15.05749 | -70.47720 | 38886 ft | 415 kts | 325° |
| 2026-04-23 05:04 | -15.01140 | -70.51379 | 38891 ft | 417 kts | 325° |
| 2026-04-23 05:05 | -14.96459 | -70.55094 | 38893 ft | 417 kts | 325° |
| 2026-04-23 05:05 | -14.91804 | -70.58786 | 38899 ft | 418 kts | 325° |
| 2026-04-23 05:06 | -14.87171 | -70.62458 | 38900 ft | 417 kts | 325° |
| 2026-04-23 05:06 | -14.82537 | -70.66131 | 38915 ft | 417 kts | 326° |
| 2026-04-23 05:07 | -14.77925 | -70.69782 | 38922 ft | 417 kts | 326° |
| 2026-04-23 05:07 | -14.73257 | -70.73477 | 38938 ft | 417 kts | 326° |
| 2026-04-23 05:08 | -14.68648 | -70.77125 | 38588 ft | 420 kts | 326° |
| 2026-04-23 05:08 | -14.66274 | -70.79004 | 37959 ft | 420 kts | 326° |
| 2026-04-23 05:08 | -14.63940 | -70.80850 | 37300 ft | 420 kts | 326° |
| 2026-04-23 05:09 | -14.61593 | -70.82704 | 36648 ft | 420 kts | 325° |
| 2026-04-23 05:09 | -14.59267 | -70.84541 | 35967 ft | 420 kts | 325° |
| 2026-04-23 05:09 | -14.56939 | -70.86375 | 35413 ft | 415 kts | 325° |
| 2026-04-23 05:09 | -14.54646 | -70.88180 | 34964 ft | 410 kts | 325° |
| 2026-04-23 05:10 | -14.52381 | -70.89964 | 34523 ft | 404 kts | 325° |
| 2026-04-23 05:10 | -14.50118 | -70.91747 | 34107 ft | 401 kts | 324° |
| 2026-04-23 05:10 | -14.47943 | -70.93462 | 33700 ft | 398 kts | 324° |
| 2026-04-23 05:10 | -14.45719 | -70.95214 | 33293 ft | 397 kts | 324° |
| 2026-04-23 05:11 | -14.43501 | -70.96963 | 32841 ft | 395 kts | 324° |
| 2026-04-23 05:11 | -14.41323 | -70.98679 | 32446 ft | 391 kts | 324° |
| 2026-04-23 05:11 | -14.39181 | -71.00366 | 32075 ft | 388 kts | 324° |
| 2026-04-23 05:11 | -14.37040 | -71.02052 | 31670 ft | 385 kts | 324° |
| 2026-04-23 05:12 | -14.34907 | -71.03731 | 31282 ft | 382 kts | 324° |
| 2026-04-23 05:12 | -14.32795 | -71.05393 | 30860 ft | 379 kts | 324° |
| 2026-04-23 05:12 | -14.30724 | -71.07023 | 30449 ft | 372 kts | 323° |
| 2026-04-23 05:12 | -14.28655 | -71.08650 | 30030 ft | 365 kts | 323° |
| 2026-04-23 05:13 | -14.26653 | -71.10226 | 29630 ft | 362 kts | 323° |
| 2026-04-23 05:13 | -14.24636 | -71.11813 | 29209 ft | 359 kts | 323° |
| 2026-04-23 05:13 | -14.22667 | -71.13362 | 28817 ft | 356 kts | 323° |
| 2026-04-23 05:14 | -14.18690 | -71.16491 | 28031 ft | 352 kts | 323° |
| 2026-04-23 05:14 | -14.16746 | -71.18019 | 27631 ft | 350 kts | 323° |
| 2026-04-23 05:14 | -14.14793 | -71.19553 | 27205 ft | 349 kts | 323° |
| 2026-04-23 05:14 | -14.12864 | -71.21067 | 26791 ft | 348 kts | 323° |
| 2026-04-23 05:15 | -14.10910 | -71.22602 | 26365 ft | 347 kts | 323° |
| 2026-04-23 05:15 | -14.09015 | -71.24089 | 25958 ft | 344 kts | 323° |
| 2026-04-23 05:15 | -14.07091 | -71.25600 | 25563 ft | 340 kts | 323° |
| 2026-04-23 05:15 | -14.05228 | -71.27062 | 25168 ft | 336 kts | 322° |
| 2026-04-23 05:16 | -14.03351 | -71.28535 | 24772 ft | 333 kts | 322° |
| 2026-04-23 05:16 | -14.01528 | -71.29965 | 24394 ft | 329 kts | 322° |
| 2026-04-23 05:16 | -13.99685 | -71.31411 | 24011 ft | 328 kts | 322° |
| 2026-04-23 05:16 | -13.97856 | -71.32845 | 23639 ft | 327 kts | 322° |
| 2026-04-23 05:17 | -13.96044 | -71.34266 | 23288 ft | 327 kts | 322° |
| 2026-04-23 05:17 | -13.94221 | -71.35696 | 22917 ft | 328 kts | 322° |
| 2026-04-23 05:17 | -13.92399 | -71.37124 | 22532 ft | 329 kts | 322° |
| 2026-04-23 05:17 | -13.90556 | -71.38570 | 22154 ft | 329 kts | 322° |
| 2026-04-23 05:18 | -13.88712 | -71.40015 | 21752 ft | 329 kts | 323° |
| 2026-04-23 05:18 | -13.86890 | -71.41444 | 21358 ft | 327 kts | 323° |
| 2026-04-23 05:18 | -13.85081 | -71.42861 | 20967 ft | 324 kts | 323° |
| 2026-04-23 05:18 | -13.83286 | -71.44267 | 20587 ft | 322 kts | 323° |
| 2026-04-23 05:19 | -13.81487 | -71.45675 | 20195 ft | 320 kts | 323° |
| 2026-04-23 05:19 | -13.79722 | -71.47058 | 19805 ft | 318 kts | 323° |
| 2026-04-23 05:19 | -13.77950 | -71.48444 | 19431 ft | 315 kts | 323° |
| 2026-04-23 05:19 | -13.76202 | -71.49813 | 19066 ft | 315 kts | 323° |
| 2026-04-23 05:20 | -13.74458 | -71.51176 | 18795 ft | 310 kts | 323° |
| 2026-04-23 05:20 | -13.72774 | -71.52496 | 18730 ft | 297 kts | 323° |
| 2026-04-23 05:20 | -13.71138 | -71.53776 | 18671 ft | 284 kts | 323° |
| 2026-04-23 05:20 | -13.69595 | -71.54983 | 18608 ft | 270 kts | 323° |
| 2026-04-23 05:21 | -13.68134 | -71.56126 | 18555 ft | 262 kts | 323° |
| 2026-04-23 05:21 | -13.66667 | -71.57272 | 18476 ft | 262 kts | 323° |
| 2026-04-23 05:21 | -13.65268 | -71.58472 | 18316 ft | 262 kts | 311° |
| 2026-04-23 05:21 | -13.64315 | -71.60082 | 17968 ft | 267 kts | 292° |
| 2026-04-23 05:22 | -13.63681 | -71.61901 | 17366 ft | 271 kts | 289° |
| 2026-04-23 05:22 | -13.63086 | -71.63753 | 16797 ft | 272 kts | 289° |
| 2026-04-23 05:22 | -13.62487 | -71.65573 | 16261 ft | 270 kts | 290° |
| 2026-04-23 05:22 | -13.61906 | -71.67378 | 15786 ft | 266 kts | 286° |
| 2026-04-23 05:23 | -13.61503 | -71.69205 | 15407 ft | 258 kts | 283° |
| 2026-04-23 05:23 | -13.61082 | -71.70969 | 15011 ft | 251 kts | 289° |
| 2026-04-23 05:23 | -13.60506 | -71.72615 | 14665 ft | 248 kts | 292° |
| 2026-04-23 05:23 | -13.59868 | -71.74277 | 14357 ft | 247 kts | 293° |
| 2026-04-23 05:24 | -13.59233 | -71.75893 | 14059 ft | 246 kts | 293° |
| 2026-04-23 05:24 | -13.58577 | -71.77546 | 13761 ft | 243 kts | 293° |
| 2026-04-23 05:24 | -13.57957 | -71.79117 | 13510 ft | 230 kts | 293° |
| 2026-04-23 05:24 | -13.57367 | -71.80611 | 13133 ft | 216 kts | 293° |
| 2026-04-23 05:25 | -13.56832 | -71.81998 | 12842 ft | 197 kts | 292° |
| 2026-04-23 05:25 | -13.56393 | -71.83292 | 12570 ft | 184 kts | 290° |
| 2026-04-23 05:25 | -13.55998 | -71.84486 | 12309 ft | 170 kts | 290° |
| 2026-04-23 05:25 | -13.55574 | -71.85603 | 12104 ft | 168 kts | 297° |
| 2026-04-23 05:26 | -13.55013 | -71.86659 | 11897 ft | 167 kts | 303° |
| 2026-04-23 05:26 | -13.54434 | -71.87689 | 11689 ft | 167 kts | 297° |
| 2026-04-23 05:26 | -13.54071 | -71.88818 | 11480 ft | 168 kts | 282° |
| 2026-04-23 05:26 | -13.53947 | -71.90015 | 11267 ft | 168 kts | 274° |
| 2026-04-23 05:27 | -13.53842 | -71.91219 | 11007 ft | 167 kts | 277° |
| 2026-04-23 05:27 | -13.53719 | -71.92403 | 10801 ft | 166 kts | 277° |
| 2026-04-23 05:27 | -13.53602 | -71.93542 | 10795 ft | 138 kts | 276° |
| 2026-04-23 05:27 | -13.53532 | -71.94211 | 10824 ft | 53 kts | 275° |
| 2026-04-23 05:28 | -13.53536 | -71.94358 | 10830 ft | 2 kts | 155° |
| 2026-04-23 05:28 | -13.53561 | -71.94344 | 10830 ft | 7 kts | 168° |
| 2026-04-23 05:28 | -13.53615 | -71.94345 | 10829 ft | 7 kts | 186° |
| 2026-04-23 05:28 | -13.53655 | -71.94368 | 10831 ft | 5 kts | 245° |
| 2026-04-23 05:29 | -13.53662 | -71.94398 | 10832 ft | 4 kts | 257° |
| 2026-04-23 05:29 | -13.53695 | -71.94447 | 10836 ft | 6 kts | 204° |
| 2026-04-23 05:29 | -13.53725 | -71.94426 | 10835 ft | 7 kts | 120° |
| 2026-04-23 05:29 | -13.53737 | -71.94401 | 10834 ft | 1 kts | 118° |
| 2026-04-23 05:30 | -13.53740 | -71.94396 | 10834 ft | 0 kts | 120° |